createdAt,value
2017-04-16T00:00:11.616Z,0
2017-04-16T00:01:12.186Z,0
2017-04-16T00:02:12.756Z,0
2017-04-16T00:03:13.330Z,0
2017-04-16T00:04:14.098Z,0
2017-04-16T00:05:14.669Z,0
2017-04-16T00:06:15.238Z,0
2017-04-16T00:07:15.809Z,0
2017-04-16T00:08:16.379Z,0
2017-04-16T00:09:16.950Z,0
2017-04-16T00:10:17.522Z,0
2017-04-16T00:11:18.090Z,0
2017-04-16T00:12:18.659Z,0
2017-04-16T00:13:19.230Z,0
2017-04-16T00:14:19.819Z,0
2017-04-16T00:15:20.404Z,0
2017-04-16T00:16:20.990Z,0
2017-04-16T00:17:21.561Z,0
2017-04-16T00:18:22.134Z,0
2017-04-16T00:19:22.703Z,0
2017-04-16T00:20:23.275Z,0
2017-04-16T00:21:23.847Z,0
2017-04-16T00:22:24.415Z,0
2017-04-16T00:23:24.986Z,0
2017-04-16T00:24:25.555Z,0
2017-04-16T00:25:26.125Z,0
2017-04-16T00:26:26.713Z,0
2017-04-16T00:27:27.284Z,0
2017-04-16T00:28:27.871Z,0
2017-04-16T00:29:28.460Z,0
2017-04-16T00:30:29.029Z,0
2017-04-16T00:31:29.599Z,0
2017-04-16T00:32:30.168Z,0
2017-04-16T00:33:30.738Z,0
2017-04-16T00:34:31.509Z,0
2017-04-16T00:35:32.097Z,0
2017-04-16T00:36:32.666Z,0
2017-04-16T00:37:33.238Z,0
2017-04-16T00:38:33.808Z,0
2017-04-16T00:39:34.396Z,0
2017-04-16T00:40:34.966Z,0
2017-04-16T00:41:35.613Z,0
2017-04-16T00:42:36.183Z,0
2017-04-16T00:43:36.753Z,0
2017-04-16T00:44:37.324Z,0
2017-04-16T00:45:37.895Z,0
2017-04-16T00:46:38.464Z,0
2017-04-16T00:47:39.033Z,0
2017-04-16T00:48:39.602Z,0
2017-04-16T00:49:40.172Z,0
2017-04-16T00:50:40.743Z,0
2017-04-16T00:51:41.312Z,0
2017-04-16T00:52:41.883Z,0
2017-04-16T00:53:42.453Z,0
2017-04-16T00:54:43.024Z,0
2017-04-16T00:55:43.595Z,0
2017-04-16T00:56:44.165Z,0
2017-04-16T00:57:44.733Z,0
2017-04-16T00:58:45.303Z,0
2017-04-16T00:59:45.874Z,0
2017-04-16T01:00:46.446Z,0
2017-04-16T01:01:47.116Z,0
2017-04-16T01:02:47.685Z,0
2017-04-16T01:03:48.255Z,0
2017-04-16T01:04:49.025Z,0
2017-04-16T01:05:49.596Z,0
2017-04-16T01:06:50.164Z,0
2017-04-16T01:07:50.732Z,0
2017-04-16T01:08:51.301Z,0
2017-04-16T01:09:51.890Z,0
2017-04-16T01:14:38.828Z,0
2017-04-16T01:15:39.396Z,0
2017-04-16T01:16:39.964Z,0
2017-04-16T01:17:40.530Z,0
2017-04-16T01:18:41.097Z,0
2017-04-16T01:19:41.663Z,0
2017-04-16T01:20:42.230Z,0
2017-04-16T01:21:42.797Z,0
2017-04-16T01:22:43.364Z,0
2017-04-16T01:23:43.930Z,0
2017-04-16T01:24:44.495Z,0
2017-04-16T01:25:45.062Z,0
2017-04-16T01:26:45.628Z,0
2017-04-16T01:27:46.194Z,0
2017-04-16T01:28:46.759Z,0
2017-04-16T01:29:47.338Z,0
2017-04-16T01:30:47.903Z,0
2017-04-16T01:31:48.470Z,0
2017-04-16T01:32:49.038Z,0
2017-04-16T01:33:49.617Z,0
2017-04-16T01:34:50.186Z,0
2017-04-16T01:35:50.952Z,0
2017-04-16T01:36:51.520Z,0
2017-04-16T01:37:52.088Z,0
2017-04-16T01:38:52.767Z,0
2017-04-16T01:39:53.334Z,0
2017-04-16T01:40:53.899Z,0
2017-04-16T01:41:54.467Z,0
2017-04-16T01:42:55.033Z,0
2017-04-16T01:43:55.600Z,0
2017-04-16T01:44:56.167Z,0
2017-04-16T01:45:56.733Z,0
2017-04-16T01:46:57.299Z,0
2017-04-16T01:47:57.866Z,0
2017-04-16T01:48:58.431Z,0
2017-04-16T01:49:58.997Z,0
2017-04-16T01:50:59.563Z,0
2017-04-16T01:52:00.129Z,0
2017-04-16T01:53:00.694Z,0
2017-04-16T01:54:01.261Z,0
2017-04-16T01:55:01.826Z,0
2017-04-16T01:56:02.410Z,0
2017-04-16T01:57:02.958Z,0
2017-04-16T01:58:03.525Z,0
2017-04-16T01:59:04.089Z,0
2017-04-16T02:00:04.654Z,0
2017-04-16T02:01:05.221Z,0
2017-04-16T02:02:05.785Z,0
2017-04-16T02:03:06.353Z,0
2017-04-16T02:04:06.919Z,0
2017-04-16T02:05:07.484Z,0
2017-04-16T02:06:08.251Z,0
2017-04-16T02:07:08.818Z,0
2017-04-16T02:08:09.385Z,0
2017-04-16T02:09:09.965Z,0
2017-04-16T02:10:10.532Z,0
2017-04-16T02:11:11.100Z,0
2017-04-16T02:12:11.667Z,0
2017-04-16T02:13:12.235Z,0
2017-04-16T02:14:12.814Z,0
2017-04-16T02:15:13.381Z,0
2017-04-16T02:16:13.948Z,0
2017-04-16T02:17:14.514Z,0
2017-04-16T02:18:15.092Z,0
2017-04-16T02:19:15.658Z,0
2017-04-16T02:20:16.223Z,0
2017-04-16T02:21:17.003Z,0
2017-04-16T02:22:17.568Z,0
2017-04-16T02:23:18.135Z,0
2017-04-16T02:24:18.701Z,0
2017-04-16T02:25:19.269Z,0
2017-04-16T02:26:19.839Z,0
2017-04-16T02:27:20.405Z,0
2017-04-16T02:28:20.970Z,0
2017-04-16T02:29:21.539Z,0
2017-04-16T02:30:22.106Z,0
2017-04-16T02:31:22.673Z,0
2017-04-16T02:32:23.240Z,0
2017-04-16T02:33:23.805Z,0
2017-04-16T02:34:24.370Z,0
2017-04-16T02:35:24.935Z,0
2017-04-16T02:36:25.701Z,0
2017-04-16T02:37:26.267Z,0
2017-04-16T02:38:26.836Z,0
2017-04-16T02:39:27.403Z,0
2017-04-16T02:40:27.969Z,0
2017-04-16T02:41:28.537Z,0
2017-04-16T02:42:29.102Z,0
2017-04-16T02:43:29.674Z,0
2017-04-16T02:44:30.237Z,0
2017-04-16T02:45:30.803Z,0
2017-04-16T02:46:31.384Z,0
2017-04-16T02:47:31.950Z,0
2017-04-16T02:48:32.517Z,0
2017-04-16T02:49:33.084Z,0
2017-04-16T02:50:33.651Z,0
2017-04-16T02:51:34.416Z,0
2017-04-16T02:52:34.983Z,0
2017-04-16T02:53:35.550Z,0
2017-04-16T02:54:36.118Z,0
2017-04-16T02:55:36.683Z,0
2017-04-16T02:56:37.253Z,0
2017-04-16T02:57:37.819Z,0
2017-04-16T02:58:38.386Z,0
2017-04-16T02:59:38.952Z,0
2017-04-16T03:00:39.519Z,0
2017-04-16T03:01:40.084Z,0
2017-04-16T03:02:40.662Z,0
2017-04-16T03:03:41.230Z,0
2017-04-16T03:04:41.795Z,0
2017-04-16T03:05:42.367Z,0
2017-04-16T03:06:43.128Z,0
2017-04-16T03:07:43.693Z,0
2017-04-16T03:08:44.259Z,0
2017-04-16T03:09:44.824Z,0
2017-04-16T03:10:45.389Z,0
2017-04-16T03:11:45.981Z,0
2017-04-16T03:12:46.534Z,0
2017-04-16T03:13:47.117Z,0
2017-04-16T03:14:47.680Z,0
2017-04-16T03:15:48.258Z,0
2017-04-16T03:16:48.825Z,0
2017-04-16T03:17:49.405Z,0
2017-04-16T03:18:49.971Z,0
2017-04-16T03:19:50.538Z,0
2017-04-16T03:20:51.103Z,0
2017-04-16T03:21:51.869Z,0
2017-04-16T03:22:52.436Z,0
2017-04-16T03:23:53.005Z,0
2017-04-16T03:24:53.569Z,0
2017-04-16T03:25:54.137Z,0
2017-04-16T03:26:54.702Z,0
2017-04-16T03:27:55.271Z,0
2017-04-16T03:28:55.851Z,0
2017-04-16T03:29:56.416Z,0
2017-04-16T03:30:56.985Z,0
2017-04-16T03:31:57.550Z,0
2017-04-16T03:32:58.119Z,0
2017-04-16T03:33:58.684Z,0
2017-04-16T03:34:59.252Z,0
2017-04-16T03:35:59.850Z,0
2017-04-16T03:37:00.617Z,0
2017-04-16T03:38:01.196Z,0
2017-04-16T03:39:01.763Z,0
2017-04-16T03:40:02.329Z,0
2017-04-16T03:41:02.896Z,0
2017-04-16T03:42:03.467Z,0
2017-04-16T03:43:04.028Z,0
2017-04-16T03:44:04.593Z,0
2017-04-16T03:45:05.159Z,0
2017-04-16T03:46:05.725Z,0
2017-04-16T03:47:06.291Z,0
2017-04-16T03:48:06.856Z,0
2017-04-16T03:49:07.424Z,0
2017-04-16T03:50:07.990Z,0
2017-04-16T03:51:08.557Z,0
2017-04-16T03:52:09.323Z,0
2017-04-16T03:53:09.901Z,0
2017-04-16T03:54:10.467Z,0
2017-04-16T03:55:11.032Z,0
2017-04-16T03:56:11.597Z,0
2017-04-16T03:57:12.164Z,0
2017-04-16T03:58:12.731Z,0
2017-04-16T03:59:13.295Z,0
2017-04-16T04:00:13.859Z,0
2017-04-16T04:01:14.424Z,0
2017-04-16T04:02:14.993Z,0
2017-04-16T04:03:15.554Z,0
2017-04-16T04:04:16.121Z,0
2017-04-16T04:05:16.687Z,0
2017-04-16T04:06:17.256Z,0
2017-04-16T04:07:18.036Z,0
2017-04-16T04:08:18.607Z,0
2017-04-16T04:09:19.170Z,0
2017-04-16T04:10:19.738Z,0
2017-04-16T04:11:20.305Z,4
2017-04-16T04:12:20.871Z,0
2017-04-16T04:13:21.451Z,0
2017-04-16T04:14:22.016Z,4
2017-04-16T04:15:22.583Z,0
2017-04-16T04:16:23.150Z,4
2017-04-16T04:17:23.717Z,0
2017-04-16T04:18:24.282Z,4
2017-04-16T04:19:24.849Z,4
2017-04-16T04:20:25.428Z,4
2017-04-16T04:21:25.994Z,4
2017-04-16T04:22:26.563Z,4
2017-04-16T04:23:27.126Z,8
2017-04-16T04:24:27.694Z,8
2017-04-16T04:25:28.260Z,8
2017-04-16T04:26:28.838Z,8
2017-04-16T04:27:29.607Z,12
2017-04-16T04:28:30.175Z,8
2017-04-16T04:29:30.742Z,12
2017-04-16T04:30:31.310Z,12
2017-04-16T04:31:31.876Z,16
2017-04-16T04:32:32.445Z,16
2017-04-16T04:33:33.014Z,16
2017-04-16T04:34:33.581Z,20
2017-04-16T04:35:34.149Z,24
2017-04-16T04:36:34.717Z,28
2017-04-16T04:37:35.285Z,24
2017-04-16T04:38:35.851Z,28
2017-04-16T04:39:36.418Z,32
2017-04-16T04:40:36.987Z,32
2017-04-16T04:41:37.553Z,36
2017-04-16T04:42:38.323Z,40
2017-04-16T04:43:38.889Z,40
2017-04-16T04:44:39.456Z,48
2017-04-16T04:45:40.025Z,48
2017-04-16T04:46:40.590Z,52
2017-04-16T04:47:41.157Z,56
2017-04-16T04:48:41.725Z,60
2017-04-16T04:49:42.306Z,60
2017-04-16T04:50:42.872Z,68
2017-04-16T04:51:43.439Z,76
2017-04-16T04:52:44.006Z,76
2017-04-16T04:53:44.578Z,80
2017-04-16T04:54:45.143Z,84
2017-04-16T04:55:45.712Z,92
2017-04-16T04:56:46.278Z,92
2017-04-16T04:57:47.059Z,96
2017-04-16T04:58:47.626Z,104
2017-04-16T04:59:48.194Z,108
2017-04-16T05:00:48.761Z,112
2017-04-16T05:01:49.329Z,116
2017-04-16T05:02:49.899Z,124
2017-04-16T05:03:50.467Z,128
2017-04-16T05:04:51.036Z,136
2017-04-16T05:05:51.604Z,140
2017-04-16T05:06:52.171Z,148
2017-04-16T05:07:52.739Z,156
2017-04-16T05:08:53.306Z,156
2017-04-16T05:09:53.876Z,164
2017-04-16T05:10:54.458Z,168
2017-04-16T05:11:55.027Z,172
2017-04-16T05:12:55.797Z,172
2017-04-16T05:13:56.365Z,176
2017-04-16T05:14:56.933Z,180
2017-04-16T05:15:57.506Z,180
2017-04-16T05:16:58.083Z,180
2017-04-16T05:17:58.650Z,184
2017-04-16T05:18:59.219Z,184
2017-04-16T05:19:59.789Z,196
2017-04-16T05:21:00.356Z,200
2017-04-16T05:22:00.940Z,212
2017-04-16T05:23:01.510Z,216
2017-04-16T05:24:02.078Z,220
2017-04-16T05:25:02.648Z,220
2017-04-16T05:26:03.216Z,208
2017-04-16T05:27:03.785Z,216
2017-04-16T05:28:04.355Z,228
2017-04-16T05:29:04.925Z,236
2017-04-16T05:30:05.495Z,240
2017-04-16T05:31:06.064Z,240
2017-04-16T05:32:06.632Z,244
2017-04-16T05:33:07.204Z,244
2017-04-16T05:34:07.772Z,244
2017-04-16T05:35:08.342Z,252
2017-04-16T05:36:08.911Z,260
2017-04-16T05:37:09.480Z,264
2017-04-16T05:38:10.051Z,272
2017-04-16T05:39:10.620Z,284
2017-04-16T05:40:11.190Z,296
2017-04-16T05:41:11.760Z,304
2017-04-16T05:42:12.329Z,308
2017-04-16T05:43:12.900Z,316
2017-04-16T05:44:13.470Z,300
2017-04-16T05:45:14.038Z,300
2017-04-16T05:46:14.607Z,300
2017-04-16T05:47:15.177Z,304
2017-04-16T05:48:15.747Z,308
2017-04-16T05:49:16.318Z,312
2017-04-16T05:50:16.888Z,308
2017-04-16T05:51:17.458Z,308
2017-04-16T05:52:18.027Z,320
2017-04-16T05:53:18.598Z,324
2017-04-16T05:54:19.169Z,340
2017-04-16T05:55:19.751Z,348
2017-04-16T05:56:20.323Z,356
2017-04-16T05:57:20.893Z,372
2017-04-16T05:58:21.462Z,380
2017-04-16T05:59:22.037Z,380
2017-04-16T06:00:22.613Z,380
2017-04-16T06:01:23.183Z,388
2017-04-16T06:02:23.754Z,396
2017-04-16T06:03:24.323Z,412
2017-04-16T06:04:24.894Z,416
2017-04-16T06:05:25.463Z,416
2017-04-16T06:06:26.033Z,420
2017-04-16T06:07:26.700Z,428
2017-04-16T06:08:27.270Z,428
2017-04-16T06:09:27.841Z,440
2017-04-16T06:10:28.413Z,444
2017-04-16T06:11:28.984Z,444
2017-04-16T06:12:29.553Z,452
2017-04-16T06:13:30.125Z,468
2017-04-16T06:14:30.696Z,476
2017-04-16T06:15:31.266Z,492
2017-04-16T06:16:31.835Z,496
2017-04-16T06:17:32.404Z,504
2017-04-16T06:18:32.975Z,504
2017-04-16T06:19:33.545Z,512
2017-04-16T06:20:34.129Z,516
2017-04-16T06:21:34.700Z,524
2017-04-16T06:22:35.273Z,532
2017-04-16T06:23:35.839Z,544
2017-04-16T06:24:36.409Z,556
2017-04-16T06:25:36.979Z,532
2017-04-16T06:26:37.551Z,504
2017-04-16T06:27:38.132Z,552
2017-04-16T06:28:38.703Z,552
2017-04-16T06:29:39.286Z,552
2017-04-16T06:30:39.859Z,568
2017-04-16T06:31:40.428Z,548
2017-04-16T06:32:40.999Z,536
2017-04-16T06:33:41.585Z,556
2017-04-16T06:34:42.153Z,540
2017-04-16T06:35:42.722Z,556
2017-04-16T06:36:43.306Z,580
2017-04-16T06:37:43.875Z,592
2017-04-16T06:38:44.451Z,600
2017-04-16T06:39:45.017Z,592
2017-04-16T06:40:45.587Z,600
2017-04-16T06:41:46.159Z,600
2017-04-16T06:42:46.728Z,596
2017-04-16T06:43:47.499Z,596
2017-04-16T06:44:48.069Z,600
2017-04-16T06:45:48.654Z,604
2017-04-16T06:46:49.229Z,604
2017-04-16T06:47:49.794Z,596
2017-04-16T06:48:50.378Z,596
2017-04-16T06:49:50.948Z,592
2017-04-16T06:50:51.526Z,604
2017-04-16T06:51:52.092Z,608
2017-04-16T06:52:52.663Z,608
2017-04-16T06:53:53.233Z,600
2017-04-16T06:54:53.805Z,604
2017-04-16T06:55:54.376Z,620
2017-04-16T06:56:54.946Z,612
2017-04-16T06:57:55.520Z,516
2017-04-16T06:58:56.086Z,588
2017-04-16T06:59:56.656Z,512
2017-04-16T07:00:57.230Z,552
2017-04-16T07:01:57.800Z,484
2017-04-16T07:02:58.384Z,508
2017-04-16T07:03:58.957Z,544
2017-04-16T07:04:59.540Z,624
2017-04-16T07:06:00.110Z,600
2017-04-16T07:07:00.682Z,568
2017-04-16T07:08:01.251Z,652
2017-04-16T07:09:01.836Z,676
2017-04-16T07:10:02.407Z,708
2017-04-16T07:11:02.975Z,712
2017-04-16T07:12:03.547Z,700
2017-04-16T07:13:04.121Z,580
2017-04-16T07:14:04.690Z,544
2017-04-16T07:15:05.261Z,536
2017-04-16T07:16:05.830Z,536
2017-04-16T07:17:06.401Z,532
2017-04-16T07:18:06.973Z,524
2017-04-16T07:19:07.544Z,524
2017-04-16T07:20:08.115Z,528
2017-04-16T07:21:08.685Z,520
2017-04-16T07:22:09.258Z,512
2017-04-16T07:23:09.831Z,512
2017-04-16T07:24:10.400Z,512
2017-04-16T07:25:10.970Z,520
2017-04-16T07:26:11.540Z,520
2017-04-16T07:27:12.111Z,520
2017-04-16T07:28:12.683Z,520
2017-04-16T07:29:13.453Z,532
2017-04-16T07:30:14.023Z,532
2017-04-16T07:31:14.595Z,540
2017-04-16T07:32:15.165Z,548
2017-04-16T07:33:15.729Z,560
2017-04-16T07:34:16.304Z,576
2017-04-16T07:35:16.889Z,588
2017-04-16T07:36:17.455Z,600
2017-04-16T07:37:18.026Z,616
2017-04-16T07:38:18.596Z,628
2017-04-16T07:39:19.168Z,640
2017-04-16T07:40:19.741Z,656
2017-04-16T07:41:20.310Z,668
2017-04-16T07:42:20.882Z,676
2017-04-16T07:43:21.466Z,688
2017-04-16T07:44:22.037Z,692
2017-04-16T07:45:22.607Z,692
2017-04-16T07:46:23.177Z,692
2017-04-16T07:47:23.750Z,684
2017-04-16T07:48:24.327Z,680
2017-04-16T07:49:24.893Z,672
2017-04-16T07:50:25.464Z,676
2017-04-16T07:51:26.034Z,668
2017-04-16T07:52:26.605Z,668
2017-04-16T07:53:27.179Z,664
2017-04-16T07:54:27.748Z,656
2017-04-16T07:55:28.320Z,644
2017-04-16T07:56:28.892Z,628
2017-04-16T07:57:29.463Z,628
2017-04-16T07:58:30.036Z,624
2017-04-16T07:59:30.620Z,628
2017-04-16T08:00:31.190Z,644
2017-04-16T08:01:31.763Z,644
2017-04-16T08:02:32.332Z,644
2017-04-16T08:03:32.904Z,648
2017-04-16T08:04:33.678Z,668
2017-04-16T08:05:34.250Z,724
2017-04-16T08:06:34.823Z,712
2017-04-16T08:07:35.395Z,728
2017-04-16T08:08:35.966Z,808
2017-04-16T08:09:36.536Z,732
2017-04-16T08:10:37.108Z,824
2017-04-16T08:11:37.680Z,736
2017-04-16T08:12:38.251Z,736
2017-04-16T08:13:38.893Z,736
2017-04-16T08:14:39.464Z,788
2017-04-16T08:15:40.038Z,776
2017-04-16T08:16:40.621Z,812
2017-04-16T08:17:41.192Z,768
2017-04-16T08:18:41.764Z,900
2017-04-16T08:19:42.334Z,860
2017-04-16T08:20:42.904Z,788
2017-04-16T08:21:43.478Z,812
2017-04-16T08:22:44.049Z,880
2017-04-16T08:23:44.621Z,1024
2017-04-16T08:24:45.193Z,944
2017-04-16T08:25:45.763Z,932
2017-04-16T08:26:46.336Z,728
2017-04-16T08:27:46.906Z,704
2017-04-16T08:28:47.478Z,872
2017-04-16T08:29:48.048Z,820
2017-04-16T08:30:48.618Z,864
2017-04-16T08:31:49.193Z,880
2017-04-16T08:32:49.763Z,976
2017-04-16T08:33:50.337Z,988
2017-04-16T08:34:50.908Z,940
2017-04-16T08:35:51.478Z,932
2017-04-16T08:36:52.051Z,808
2017-04-16T08:37:52.622Z,900
2017-04-16T08:38:53.194Z,924
2017-04-16T08:39:53.966Z,924
2017-04-16T08:40:54.538Z,776
2017-04-16T08:41:55.109Z,912
2017-04-16T08:42:55.682Z,860
2017-04-16T08:43:56.252Z,784
2017-04-16T08:44:56.824Z,868
2017-04-16T08:45:57.397Z,960
2017-04-16T08:46:57.970Z,908
2017-04-16T08:47:58.547Z,924
2017-04-16T08:48:59.131Z,980
2017-04-16T08:49:59.708Z,952
2017-04-16T08:51:00.273Z,868
2017-04-16T08:52:00.845Z,924
2017-04-16T08:53:01.416Z,916
2017-04-16T08:54:01.989Z,924
2017-04-16T08:55:02.575Z,928
2017-04-16T08:56:03.144Z,880
2017-04-16T08:57:03.715Z,968
2017-04-16T08:58:04.289Z,976
2017-04-16T08:59:04.863Z,912
2017-04-16T09:00:05.436Z,920
2017-04-16T09:01:06.020Z,968
2017-04-16T09:02:06.592Z,988
2017-04-16T09:03:07.166Z,1008
2017-04-16T09:04:07.742Z,1064
2017-04-16T09:05:08.316Z,1068
2017-04-16T09:06:08.888Z,1056
2017-04-16T09:07:09.463Z,988
2017-04-16T09:08:10.036Z,1064
2017-04-16T09:09:10.612Z,1060
2017-04-16T09:10:11.183Z,1060
2017-04-16T09:11:11.758Z,1064
2017-04-16T09:12:12.334Z,1052
2017-04-16T09:13:12.908Z,1044
2017-04-16T09:14:13.482Z,1032
2017-04-16T09:15:14.257Z,1052
2017-04-16T09:16:14.832Z,1052
2017-04-16T09:17:15.408Z,1056
2017-04-16T09:18:15.982Z,1048
2017-04-16T09:19:16.557Z,1036
2017-04-16T09:20:17.134Z,1016
2017-04-16T09:21:17.708Z,1016
2017-04-16T09:22:18.295Z,1004
2017-04-16T09:23:18.869Z,1000
2017-04-16T09:24:19.446Z,1012
2017-04-16T09:25:20.021Z,1016
2017-04-16T09:26:20.594Z,1020
2017-04-16T09:27:21.169Z,1040
2017-04-16T09:28:21.741Z,1020
2017-04-16T09:29:22.314Z,1020
2017-04-16T09:30:23.090Z,984
2017-04-16T09:31:23.664Z,780
2017-04-16T09:32:24.236Z,992
2017-04-16T09:33:24.808Z,1024
2017-04-16T09:34:25.383Z,1032
2017-04-16T09:35:25.957Z,1076
2017-04-16T09:36:26.530Z,1080
2017-04-16T09:37:27.105Z,1100
2017-04-16T09:38:27.680Z,1096
2017-04-16T09:39:28.254Z,1068
2017-04-16T09:40:28.830Z,1052
2017-04-16T09:41:29.404Z,1048
2017-04-16T09:42:29.977Z,1076
2017-04-16T09:43:30.552Z,1116
2017-04-16T09:44:31.126Z,1144
2017-04-16T09:45:31.704Z,1156
2017-04-16T09:46:32.288Z,1140
2017-04-16T09:47:32.862Z,1124
2017-04-16T09:48:33.437Z,1128
2017-04-16T09:49:34.012Z,1152
2017-04-16T09:50:34.585Z,1148
2017-04-16T09:51:35.161Z,1220
2017-04-16T09:52:35.747Z,1228
2017-04-16T09:53:36.335Z,1220
2017-04-16T09:54:36.912Z,1120
2017-04-16T09:55:37.494Z,884
2017-04-16T09:56:38.069Z,1204
2017-04-16T09:57:38.643Z,860
2017-04-16T09:58:39.217Z,1204
2017-04-16T09:59:39.791Z,912
2017-04-16T10:00:40.366Z,1316
2017-04-16T10:01:40.940Z,1320
2017-04-16T10:02:41.516Z,1368
2017-04-16T10:03:42.237Z,1336
2017-04-16T10:04:42.813Z,1392
2017-04-16T10:05:43.602Z,1348
2017-04-16T10:06:44.176Z,1284
2017-04-16T10:07:44.751Z,1020
2017-04-16T10:08:45.325Z,1252
2017-04-16T10:09:45.900Z,1000
2017-04-16T10:10:46.473Z,864
2017-04-16T10:11:47.047Z,872
2017-04-16T10:12:47.633Z,896
2017-04-16T10:13:48.210Z,1196
2017-04-16T10:14:48.798Z,1168
2017-04-16T10:15:49.371Z,1196
2017-04-16T10:16:49.945Z,1224
2017-04-16T10:17:50.520Z,1348
2017-04-16T10:18:51.096Z,1040
2017-04-16T10:19:51.686Z,1012
2017-04-16T10:20:52.461Z,1328
2017-04-16T10:21:53.038Z,1180
2017-04-16T10:22:53.613Z,952
2017-04-16T10:23:54.185Z,936
2017-04-16T10:24:54.759Z,920
2017-04-16T10:25:55.347Z,900
2017-04-16T10:26:55.926Z,1208
2017-04-16T10:27:56.510Z,884
2017-04-16T10:28:57.084Z,964
2017-04-16T10:29:57.657Z,964
2017-04-16T10:30:58.254Z,860
2017-04-16T10:31:58.805Z,868
2017-04-16T10:32:59.382Z,1100
2017-04-16T10:33:59.954Z,904
2017-04-16T10:35:00.529Z,868
2017-04-16T10:36:01.317Z,1080
2017-04-16T10:37:01.890Z,960
2017-04-16T10:38:02.466Z,884
2017-04-16T10:39:03.038Z,896
2017-04-16T10:40:03.612Z,912
2017-04-16T10:41:04.188Z,940
2017-04-16T10:42:04.762Z,1000
2017-04-16T10:43:05.336Z,1112
2017-04-16T10:44:05.922Z,1108
2017-04-16T10:45:06.497Z,1020
2017-04-16T10:46:07.073Z,1020
2017-04-16T10:47:07.649Z,1076
2017-04-16T10:48:08.222Z,1272
2017-04-16T10:49:08.799Z,1188
2017-04-16T10:50:09.374Z,1040
2017-04-16T10:51:09.961Z,1100
2017-04-16T10:52:10.537Z,1004
2017-04-16T10:53:11.108Z,1012
2017-04-16T10:54:11.684Z,1024
2017-04-16T10:55:12.260Z,1044
2017-04-16T10:56:12.835Z,1092
2017-04-16T10:57:13.409Z,1156
2017-04-16T10:58:13.990Z,1224
2017-04-16T10:59:14.559Z,1416
2017-04-16T11:00:15.132Z,1500
2017-04-16T11:01:15.708Z,1540
2017-04-16T11:02:16.284Z,1576
2017-04-16T11:03:16.858Z,1604
2017-04-16T11:04:17.434Z,1488
2017-04-16T11:05:18.013Z,1284
2017-04-16T11:06:18.786Z,1224
2017-04-16T11:07:19.362Z,1132
2017-04-16T11:08:19.935Z,1100
2017-04-16T11:09:20.512Z,1156
2017-04-16T11:10:21.089Z,1056
2017-04-16T11:11:21.677Z,880
2017-04-16T11:12:22.250Z,820
2017-04-16T11:13:22.825Z,780
2017-04-16T11:14:23.403Z,756
2017-04-16T11:15:23.973Z,756
2017-04-16T11:16:24.548Z,768
2017-04-16T11:17:25.120Z,792
2017-04-16T11:18:25.695Z,836
2017-04-16T11:19:26.281Z,888
2017-04-16T11:20:26.856Z,928
2017-04-16T11:21:27.429Z,944
2017-04-16T11:22:28.003Z,964
2017-04-16T11:23:28.578Z,996
2017-04-16T11:24:29.153Z,1040
2017-04-16T11:25:29.729Z,1072
2017-04-16T11:26:30.303Z,1108
2017-04-16T11:27:30.877Z,1088
2017-04-16T11:28:31.455Z,1012
2017-04-16T11:29:32.027Z,972
2017-04-16T11:30:32.600Z,1304
2017-04-16T11:31:33.379Z,1320
2017-04-16T11:32:33.953Z,1304
2017-04-16T11:33:34.530Z,1196
2017-04-16T11:34:35.103Z,1228
2017-04-16T11:35:35.678Z,1236
2017-04-16T11:36:36.252Z,1176
2017-04-16T11:37:36.829Z,1228
2017-04-16T11:38:37.404Z,1284
2017-04-16T11:39:37.978Z,1064
2017-04-16T11:40:38.552Z,940
2017-04-16T11:41:39.129Z,1044
2017-04-16T11:42:39.717Z,1232
2017-04-16T11:43:40.291Z,1000
2017-04-16T11:44:40.867Z,1088
2017-04-16T11:45:41.442Z,1036
2017-04-16T11:46:42.015Z,964
2017-04-16T11:47:42.591Z,1208
2017-04-16T11:48:43.165Z,1028
2017-04-16T11:49:43.740Z,936
2017-04-16T11:50:44.316Z,896
2017-04-16T11:51:44.889Z,868
2017-04-16T11:52:45.463Z,868
2017-04-16T11:53:46.038Z,880
2017-04-16T11:54:46.617Z,884
2017-04-16T11:55:47.200Z,900
2017-04-16T11:56:47.977Z,896
2017-04-16T11:57:48.552Z,880
2017-04-16T11:58:49.127Z,868
2017-04-16T11:59:49.699Z,868
2017-04-16T12:00:50.275Z,884
2017-04-16T12:01:50.851Z,896
2017-04-16T12:02:51.457Z,888
2017-04-16T12:03:51.997Z,876
2017-04-16T12:04:52.573Z,872
2017-04-16T12:05:53.159Z,852
2017-04-16T12:06:53.934Z,828
2017-04-16T12:07:54.507Z,800
2017-04-16T12:08:55.082Z,776
2017-04-16T12:09:55.659Z,760
2017-04-16T12:10:56.230Z,732
2017-04-16T12:11:56.803Z,716
2017-04-16T12:12:57.378Z,704
2017-04-16T12:13:57.953Z,692
2017-04-16T12:14:58.528Z,668
2017-04-16T12:15:59.102Z,648
2017-04-16T12:16:59.675Z,632
2017-04-16T12:18:00.250Z,612
2017-04-16T12:19:00.825Z,600
2017-04-16T12:20:01.397Z,604
2017-04-16T12:21:01.971Z,608
2017-04-16T12:22:02.758Z,628
2017-04-16T12:23:03.334Z,648
2017-04-16T12:24:03.921Z,676
2017-04-16T12:25:04.494Z,708
2017-04-16T12:26:05.068Z,740
2017-04-16T12:27:05.642Z,776
2017-04-16T12:28:06.215Z,808
2017-04-16T12:29:06.791Z,848
2017-04-16T12:30:07.364Z,876
2017-04-16T12:31:07.936Z,884
2017-04-16T12:32:08.512Z,888
2017-04-16T12:33:09.086Z,900
2017-04-16T12:34:09.659Z,932
2017-04-16T12:35:10.235Z,948
2017-04-16T12:36:10.806Z,956
2017-04-16T12:37:11.382Z,960
2017-04-16T12:38:11.953Z,984
2017-04-16T12:39:12.527Z,1020
2017-04-16T12:40:13.103Z,1068
2017-04-16T12:41:13.678Z,1124
2017-04-16T12:42:14.266Z,1188
2017-04-16T12:43:14.841Z,1236
2017-04-16T12:44:15.417Z,1244
2017-04-16T12:45:15.991Z,1240
2017-04-16T12:46:16.567Z,1224
2017-04-16T12:47:17.143Z,1256
2017-04-16T12:48:17.718Z,1380
2017-04-16T12:49:18.293Z,1456
2017-04-16T12:50:18.868Z,1320
2017-04-16T12:51:19.443Z,1280
2017-04-16T12:52:20.019Z,1272
2017-04-16T12:53:20.594Z,1120
2017-04-16T12:54:21.182Z,1296
2017-04-16T12:55:21.756Z,1140
2017-04-16T12:56:22.331Z,1320
2017-04-16T12:57:23.107Z,1348
2017-04-16T12:58:23.685Z,1204
2017-04-16T12:59:24.273Z,1344
2017-04-16T13:00:24.847Z,1504
2017-04-16T13:01:25.423Z,1456
2017-04-16T13:02:25.999Z,1560
2017-04-16T13:03:26.574Z,1756
2017-04-16T13:04:27.149Z,1556
2017-04-16T13:05:27.724Z,1380
2017-04-16T13:06:28.300Z,1400
2017-04-16T13:07:28.875Z,1752
2017-04-16T13:08:29.449Z,1388
2017-04-16T13:09:30.027Z,1664
2017-04-16T13:10:30.604Z,1308
2017-04-16T13:11:31.179Z,1280
2017-04-16T13:12:31.767Z,1340
2017-04-16T13:13:32.342Z,1252
2017-04-16T13:14:32.919Z,1324
2017-04-16T13:15:33.494Z,1672
2017-04-16T13:16:34.067Z,1560
2017-04-16T13:17:34.645Z,1572
2017-04-16T13:18:35.237Z,1092
2017-04-16T13:19:35.823Z,1044
2017-04-16T13:20:36.398Z,1056
2017-04-16T13:21:36.973Z,992
2017-04-16T13:22:37.547Z,908
2017-04-16T13:23:38.123Z,816
2017-04-16T13:24:38.714Z,736
2017-04-16T13:25:39.287Z,676
2017-04-16T13:26:39.860Z,644
2017-04-16T13:27:40.435Z,624
2017-04-16T13:28:41.008Z,600
2017-04-16T13:29:41.583Z,584
2017-04-16T13:30:42.159Z,568
2017-04-16T13:31:42.733Z,516
2017-04-16T13:32:43.505Z,460
2017-04-16T13:33:44.080Z,408
2017-04-16T13:34:44.653Z,376
2017-04-16T13:35:45.227Z,356
2017-04-16T13:36:45.805Z,340
2017-04-16T13:37:46.377Z,320
2017-04-16T13:38:46.950Z,284
2017-04-16T13:39:47.522Z,248
2017-04-16T13:40:48.096Z,224
2017-04-16T13:41:48.669Z,208
2017-04-16T13:42:49.242Z,196
2017-04-16T13:43:49.815Z,204
2017-04-16T13:44:50.397Z,224
2017-04-16T13:45:50.969Z,240
2017-04-16T13:46:51.542Z,260
2017-04-16T13:47:52.114Z,344
2017-04-16T13:48:52.687Z,448
2017-04-16T13:49:53.260Z,532
2017-04-16T13:50:53.846Z,552
2017-04-16T13:51:54.418Z,524
2017-04-16T13:52:54.990Z,484
2017-04-16T13:53:55.562Z,432
2017-04-16T13:54:56.133Z,420
2017-04-16T13:55:56.705Z,440
2017-04-16T13:56:57.278Z,436
2017-04-16T13:57:57.849Z,436
2017-04-16T13:58:58.420Z,424
2017-04-16T13:59:58.990Z,440
2017-04-16T14:00:59.613Z,448
2017-04-16T14:02:00.185Z,452
2017-04-16T14:03:00.957Z,432
2017-04-16T14:04:01.529Z,408
2017-04-16T14:05:02.099Z,412
2017-04-16T14:06:02.669Z,420
2017-04-16T14:07:03.239Z,380
2017-04-16T14:08:03.811Z,384
2017-04-16T14:09:04.385Z,396
2017-04-16T14:10:04.954Z,396
2017-04-16T14:11:05.525Z,408